Wind From: 11-12-2017 10:04 Until: 12-12-2017 06:00 warning for: Wind Level: Orange info button

Power and phone distribution networks may be disrupted for relatively long periods., Roofs and chimneys can be damaged. , Tree branches may break. , Vehicles can be deported. , Traffic may be disrupted, particularly on secondary roads in forest areas. Limit your trips. , Limit your speed in highway driving, especially if you drive a vehicle or hitch sensitive to wind. , Do not go for walks in forests or along the coast., In town, be vigilant against possible falling objects., Do not work on roofs and do not touch any electrical line fallen on the ground., Store or secure sensitive objects to wind or likely to be damaged., Always install power generators outside buildings. 


Meteo18 Weather Cam more information Meteo18 Weather Cam


Thunder radar more information blitzortung!


Rain radar more information rain snow radar


Visit our other weather sites:

Template documentation
and downloads

And another site



Weather Underground History page Text

Daily Summary for July 29, 2016 Units:  Metric    English   Both
« Previous Day
Next Day »
Daily Weekly Monthly Yearly Custom
  High: Low: Average:
Temperature: 25.3 °C 13.7 °C 19.2 °C
Dew Point: 16.2 °C 12.5 °C 14.7 °C
Humidity: 95 % 56 % 77 %
Wind Speed: 19.3 km/h 0.0 km/h 4.2 km/h
Wind Gust: 24.1 km/h - -
Wind:- - WSW
Pressure: 1017.2 hPa 1014.4 hPa -
Precipitation: 0.0 mm    
Historical Graphs
 
 
Tabular Data for July 29, 2016
Time Temperature Dew Point Pressure Wind Wind Speed Wind Gust Humidity Rainfall Rate (Hourly)
00:02 17.4 °C 13.7 °C 1016.8 hPa Calm     79 % 0.0 mm
00:12 17.1 °C 13.6 °C 1016.8 hPa Calm     80 % 0.0 mm
00:17 16.9 °C 13.6 °C 1016.8 hPa Calm     81 % 0.0 mm
00:22 16.9 °C 13.6 °C 1016.8 hPa Calm     81 % 0.0 mm
00:32 16.7 °C 13.6 °C 1016.8 hPa Calm     82 % 0.0 mm
00:37 16.7 °C 13.6 °C 1016.8 hPa Calm     82 % 0.0 mm
00:42 16.7 °C 13.6 °C 1016.8 hPa Calm     82 % 0.0 mm
00:47 16.8 °C 13.7 °C 1016.8 hPa Calm     82 % 0.0 mm
00:52 16.7 °C 13.6 °C 1016.8 hPa Calm     82 % 0.0 mm
00:57 16.7 °C 13.6 °C 1016.8 hPa Calm     82 % 0.0 mm
01:02 16.6 °C 13.7 °C 1016.8 hPa Calm     83 % 0.0 mm
01:07 16.5 °C 13.6 °C 1016.8 hPa Calm   1.6 km/h 83 % 0.0 mm
01:12 16.5 °C 13.6 °C 1016.8 hPa Calm   1.6 km/h 83 % 0.0 mm
01:17 16.5 °C 13.8 °C 1016.8 hPa Calm   3.2 km/h 84 % 0.0 mm
01:22 16.4 °C 13.7 °C 1016.8 hPa Calm   3.2 km/h 84 % 0.0 mm
01:32 16.3 °C 13.6 °C 1016.8 hPa Calm   1.6 km/h 84 % 0.0 mm
01:37 16.4 °C 13.7 °C 1016.8 hPa Calm   1.6 km/h 84 % 0.0 mm
01:42 16.3 °C 13.6 °C 1016.8 hPa Calm   1.6 km/h 84 % 0.0 mm
01:47 16.3 °C 13.6 °C 1016.8 hPa ESE 1.6 km/h 3.2 km/h 84 % 0.0 mm
01:52 16.3 °C 13.4 °C 1016.8 hPa Calm   3.2 km/h 83 % 0.0 mm
01:57 16.2 °C 13.3 °C 1016.8 hPa Calm   3.2 km/h 83 % 0.0 mm
02:02 16.0 °C 13.1 °C 1016.8 hPa Calm   3.2 km/h 83 % 0.0 mm
02:07 15.7 °C 13.0 °C 1016.8 hPa Calm   1.6 km/h 84 % 0.0 mm
02:12 15.5 °C 12.8 °C 1016.8 hPa Calm   1.6 km/h 84 % 0.0 mm
02:17 15.3 °C 12.8 °C 1016.8 hPa Calm   1.6 km/h 85 % 0.0 mm
02:22 15.3 °C 13.0 °C 1016.8 hPa Calm   1.6 km/h 86 % 0.0 mm
02:27 15.4 °C 13.1 °C 1016.8 hPa ESE 1.6 km/h 1.6 km/h 86 % 0.0 mm
02:32 15.4 °C 13.1 °C 1016.8 hPa Calm   1.6 km/h 86 % 0.0 mm
02:37 15.5 °C 13.2 °C 1016.5 hPa Calm   1.6 km/h 86 % 0.0 mm
02:42 15.6 °C 13.1 °C 1016.8 hPa Calm   1.6 km/h 85 % 0.0 mm
02:52 15.4 °C 13.1 °C 1016.5 hPa Calm   1.6 km/h 86 % 0.0 mm
02:57 15.6 °C 13.3 °C 1016.5 hPa Calm   1.6 km/h 86 % 0.0 mm
03:02 15.7 °C 13.5 °C 1016.5 hPa Calm   1.6 km/h 87 % 0.0 mm
03:12 15.9 °C 13.6 °C 1016.5 hPa Calm   1.6 km/h 86 % 0.0 mm
03:17 15.8 °C 13.3 °C 1016.5 hPa Calm   1.6 km/h 85 % 0.0 mm
03:22 15.7 °C 13.2 °C 1016.5 hPa Calm   1.6 km/h 85 % 0.0 mm
03:27 15.7 °C 13.4 °C 1016.5 hPa Calm   1.6 km/h 86 % 0.0 mm
03:32 15.7 °C 13.4 °C 1016.5 hPa Calm   1.6 km/h 86 % 0.0 mm
03:37 15.8 °C 13.3 °C 1016.5 hPa Calm   1.6 km/h 85 % 0.0 mm
03:42 15.8 °C 13.5 °C 1016.5 hPa Calm   1.6 km/h 86 % 0.0 mm
03:47 15.6 °C 13.3 °C 1016.5 hPa Calm   3.2 km/h 86 % 0.0 mm
03:52 15.5 °C 13.0 °C 1016.8 hPa Calm   3.2 km/h 85 % 0.0 mm
03:57 15.5 °C 13.3 °C 1016.8 hPa Calm   3.2 km/h 87 % 0.0 mm
04:02 15.7 °C 13.5 °C 1016.8 hPa Calm   3.2 km/h 87 % 0.0 mm
04:07 15.7 °C 13.4 °C 1016.8 hPa Calm   3.2 km/h 86 % 0.0 mm
04:12 15.6 °C 13.3 °C 1016.5 hPa Calm   3.2 km/h 86 % 0.0 mm
04:17 15.4 °C 13.2 °C 1016.8 hPa Calm   1.6 km/h 87 % 0.0 mm
04:22 15.3 °C 13.1 °C 1016.5 hPa Calm   1.6 km/h 87 % 0.0 mm
04:32 15.1 °C 13.1 °C 1016.8 hPa Calm   1.6 km/h 88 % 0.0 mm
04:37 15.1 °C 13.1 °C 1016.5 hPa Calm     88 % 0.0 mm
04:42 15.1 °C 13.3 °C 1016.8 hPa Calm     89 % 0.0 mm
04:47 15.0 °C 13.2 °C 1016.8 hPa Calm     89 % 0.0 mm
04:52 14.9 °C 13.1 °C 1016.8 hPa Calm     89 % 0.0 mm
04:57 14.8 °C 13.0 °C 1016.8 hPa Calm   1.6 km/h 89 % 0.0 mm
05:02 14.7 °C 12.9 °C 1016.8 hPa Calm   1.6 km/h 89 % 0.0 mm
05:07 14.6 °C 13.0 °C 1016.5 hPa Calm   1.6 km/h 90 % 0.0 mm
05:12 14.5 °C 12.9 °C 1016.8 hPa Calm   1.6 km/h 90 % 0.0 mm
05:17 14.5 °C 13.0 °C 1016.5 hPa Calm   1.6 km/h 91 % 0.0 mm
05:22 14.4 °C 12.9 °C 1016.5 hPa Calm   1.6 km/h 91 % 0.0 mm
05:32 14.3 °C 12.9 °C 1016.5 hPa Calm   3.2 km/h 91 % 0.0 mm
05:37 14.2 °C 12.8 °C 1016.5 hPa Calm   1.6 km/h 91 % 0.0 mm
05:42 14.1 °C 12.7 °C 1016.5 hPa Calm   1.6 km/h 91 % 0.0 mm
05:47 14.0 °C 12.6 °C 1016.5 hPa Calm     91 % 0.0 mm
05:52 13.9 °C 12.6 °C 1016.5 hPa Calm     92 % 0.0 mm
05:57 13.8 °C 12.5 °C 1016.5 hPa Calm   1.6 km/h 92 % 0.0 mm
06:02 13.8 °C 12.5 °C 1016.5 hPa Calm   1.6 km/h 92 % 0.0 mm
06:12 13.7 °C 12.6 °C 1016.5 hPa Calm   1.6 km/h 93 % 0.0 mm
06:17 13.8 °C 12.7 °C 1016.5 hPa Calm   1.6 km/h 93 % 0.0 mm
06:22 13.8 °C 12.7 °C 1016.8 hPa Calm   1.6 km/h 93 % 0.0 mm
06:32 14.4 °C 13.6 °C 1016.8 hPa SW 9.7 km/h 9.7 km/h 95 % 0.0 mm
06:42 15.2 °C 14.2 °C 1016.8 hPa SW 9.7 km/h 11.3 km/h 94 % 0.0 mm
06:52 15.4 °C 14.3 °C 1016.8 hPa SW 4.8 km/h 11.3 km/h 93 % 0.0 mm
07:02 15.4 °C 14.1 °C 1016.8 hPa SW 9.7 km/h 12.9 km/h 92 % 0.0 mm
07:12 15.6 °C 14.3 °C 1016.8 hPa WSW 6.4 km/h 14.5 km/h 92 % 0.0 mm
07:17 15.6 °C 14.3 °C 1016.8 hPa WSW 3.2 km/h 14.5 km/h 92 % 0.0 mm
07:27 15.6 °C 14.3 °C 1016.8 hPa SW 6.4 km/h 14.5 km/h 92 % 0.0 mm
07:32 15.7 °C 14.4 °C 1016.8 hPa WSW 6.4 km/h 12.9 km/h 92 % 0.0 mm
07:42 15.8 °C 14.5 °C 1017.2 hPa WSW 6.4 km/h 12.9 km/h 92 % 0.0 mm
07:52 15.9 °C 14.4 °C 1017.2 hPa WSW 9.7 km/h 14.5 km/h 91 % 0.0 mm
08:02 16.1 °C 14.6 °C 1017.2 hPa SW 3.2 km/h 14.5 km/h 91 % 0.0 mm
08:12 16.2 °C 14.7 °C 1017.2 hPa WSW 3.2 km/h 9.7 km/h 91 % 0.0 mm
08:22 16.3 °C 14.7 °C 1017.2 hPa SSW 3.2 km/h 9.7 km/h 90 % 0.0 mm
08:32 16.3 °C 14.7 °C 1017.2 hPa WSW 1.6 km/h 9.7 km/h 90 % 0.0 mm
08:37 16.4 °C 14.8 °C 1017.2 hPa SW 6.4 km/h 9.7 km/h 90 % 0.0 mm
08:42 16.4 °C 14.8 °C 1017.2 hPa SW 8.0 km/h 9.7 km/h 90 % 0.0 mm
08:52 16.6 °C 15.0 °C 1017.2 hPa South 4.8 km/h 11.3 km/h 90 % 0.0 mm
08:57 16.6 °C 15.0 °C 1017.2 hPa SW 1.6 km/h 11.3 km/h 90 % 0.0 mm
09:02 16.7 °C 15.1 °C 1017.2 hPa SSW 4.8 km/h 11.3 km/h 90 % 0.0 mm
09:12 16.9 °C 15.1 °C 1017.2 hPa Calm   11.3 km/h 89 % 0.0 mm
09:17 16.9 °C 15.1 °C 1017.2 hPa SW 6.4 km/h 11.3 km/h 89 % 0.0 mm
09:22 17.1 °C 15.1 °C 1017.2 hPa SSW 4.8 km/h 11.3 km/h 88 % 0.0 mm
09:32 17.3 °C 15.1 °C 1017.2 hPa SW 6.4 km/h 11.3 km/h 87 % 0.0 mm
09:42 17.5 °C 15.1 °C 1017.2 hPa SSW 3.2 km/h 16.1 km/h 86 % 0.0 mm
09:47 17.6 °C 15.0 °C 1017.2 hPa SW 12.9 km/h 16.1 km/h 85 % 0.0 mm
09:52 17.7 °C 15.0 °C 1017.2 hPa SSW 4.8 km/h 16.1 km/h 84 % 0.0 mm
10:02 17.9 °C 15.0 °C 1017.2 hPa SW 6.4 km/h 17.7 km/h 83 % 0.0 mm
10:12 18.1 °C 15.0 °C 1017.2 hPa NW 8.0 km/h 19.3 km/h 82 % 0.0 mm
10:17 18.1 °C 15.0 °C 1017.2 hPa West 12.9 km/h 19.3 km/h 82 % 0.0 mm
10:22 18.2 °C 15.1 °C 1016.8 hPa SSW 8.0 km/h 19.3 km/h 82 % 0.0 mm
10:27 18.3 °C 15.0 °C 1017.2 hPa WSW 3.2 km/h 19.3 km/h 81 % 0.0 mm
10:32 18.3 °C 15.2 °C 1016.8 hPa WSW 9.7 km/h 19.3 km/h 82 % 0.0 mm
10:42 18.2 °C 15.1 °C 1016.8 hPa WSW 16.1 km/h 17.7 km/h 82 % 0.0 mm
10:47 18.1 °C 15.0 °C 1017.2 hPa WSW 14.5 km/h 17.7 km/h 82 % 0.0 mm
10:52 18.1 °C 15.2 °C 1016.8 hPa West 6.4 km/h 19.3 km/h 83 % 0.0 mm
11:02 18.3 °C 15.2 °C 1016.8 hPa SW 6.4 km/h 17.7 km/h 82 % 0.0 mm
11:12 18.3 °C 15.2 °C 1017.2 hPa WSW 8.0 km/h 19.3 km/h 82 % 0.0 mm
11:22 18.3 °C 15.2 °C 1016.8 hPa West 3.2 km/h 19.3 km/h 82 % 0.0 mm
11:27 18.4 °C 15.3 °C 1016.8 hPa SSE 4.8 km/h 19.3 km/h 82 % 0.0 mm
11:37 18.4 °C 15.1 °C 1017.2 hPa South 8.0 km/h 12.9 km/h 81 % 0.0 mm
11:42 18.3 °C 15.2 °C 1017.2 hPa WSW 9.7 km/h 12.9 km/h 82 % 0.0 mm
11:52 18.3 °C 15.2 °C 1017.2 hPa WSW 14.5 km/h 16.1 km/h 82 % 0.0 mm
12:02 18.3 °C 15.2 °C 1016.8 hPa South 8.0 km/h 17.7 km/h 82 % 0.0 mm
12:12 18.6 °C 15.3 °C 1017.2 hPa WSW 8.0 km/h 17.7 km/h 81 % 0.0 mm
12:17 18.4 °C 15.3 °C 1017.2 hPa WSW 9.7 km/h 17.7 km/h 82 % 0.0 mm
12:22 18.5 °C 15.4 °C 1016.8 hPa SW 4.8 km/h 17.7 km/h 82 % 0.0 mm
12:32 19.0 °C 15.5 °C 1016.8 hPa SW 8.0 km/h 17.7 km/h 80 % 0.0 mm
12:42 19.1 °C 15.6 °C 1016.8 hPa WSW 9.7 km/h 20.9 km/h 80 % 0.0 mm
12:52 19.3 °C 15.6 °C 1016.8 hPa SSW 8.0 km/h 20.9 km/h 79 % 0.0 mm
12:57 19.4 °C 15.5 °C 1016.8 hPa SW 3.2 km/h 16.1 km/h 78 % 0.0 mm
13:02 19.5 °C 15.4 °C 1016.8 hPa SSW 3.2 km/h 16.1 km/h 77 % 0.0 mm
13:12 19.6 °C 15.5 °C 1016.8 hPa West 11.3 km/h 14.5 km/h 77 % 0.0 mm
13:17 19.8 °C 15.4 °C 1016.5 hPa SW 8.0 km/h 17.7 km/h 76 % 0.0 mm
13:22 19.8 °C 15.4 °C 1016.8 hPa WNW 6.4 km/h 17.7 km/h 76 % 0.0 mm
13:32 19.9 °C 15.5 °C 1016.5 hPa SW 3.2 km/h 19.3 km/h 76 % 0.0 mm
13:42 20.1 °C 15.5 °C 1016.5 hPa SW 9.7 km/h 20.9 km/h 75 % 0.0 mm
13:47 20.2 °C 15.6 °C 1016.5 hPa SW 6.4 km/h 20.9 km/h 75 % 0.0 mm
13:52 20.1 °C 15.3 °C 1016.5 hPa WSW 11.3 km/h 20.9 km/h 74 % 0.0 mm
13:57 20.2 °C 15.4 °C 1016.5 hPa West 12.9 km/h 20.9 km/h 74 % 0.0 mm
14:02 20.2 °C 15.6 °C 1016.5 hPa SW 8.0 km/h 20.9 km/h 75 % 0.0 mm
14:07 20.5 °C 15.7 °C 1016.5 hPa WSW 6.4 km/h 19.3 km/h 74 % 0.0 mm
14:12 20.7 °C 15.7 °C 1016.5 hPa WNW 8.0 km/h 19.3 km/h 73 % 0.0 mm
14:17 20.9 °C 15.7 °C 1016.5 hPa SW 6.4 km/h 17.7 km/h 72 % 0.0 mm
14:22 20.8 °C 15.6 °C 1016.1 hPa WNW 6.4 km/h 16.1 km/h 72 % 0.0 mm
14:32 21.3 °C 15.6 °C 1016.5 hPa West 9.7 km/h 17.7 km/h 70 % 0.0 mm
14:42 21.7 °C 15.8 °C 1016.1 hPa WSW 3.2 km/h 17.7 km/h 69 % 0.0 mm
14:47 21.8 °C 15.6 °C 1016.1 hPa SSW 14.5 km/h 17.7 km/h 68 % 0.0 mm
14:52 21.7 °C 15.3 °C 1016.1 hPa SE 4.8 km/h 17.7 km/h 67 % 0.0 mm
14:57 21.8 °C 15.9 °C 1016.1 hPa WSW 9.7 km/h 19.3 km/h 69 % 0.0 mm
15:02 22.0 °C 15.8 °C 1016.1 hPa WSW 14.5 km/h 19.3 km/h 68 % 0.0 mm
15:07 22.1 °C 15.7 °C 1016.1 hPa West 6.4 km/h 19.3 km/h 67 % 0.0 mm
15:17 22.1 °C 15.7 °C 1015.8 hPa SW 6.4 km/h 19.3 km/h 67 % 0.0 mm
15:22 22.3 °C 15.6 °C 1015.8 hPa WSW 6.4 km/h 19.3 km/h 66 % 0.0 mm
15:27 22.6 °C 16.2 °C 1015.8 hPa SSE 1.6 km/h 16.1 km/h 67 % 0.0 mm
15:32 22.8 °C 15.6 °C 1015.8 hPa SW 16.1 km/h 16.1 km/h 64 % 0.0 mm
15:42 23.3 °C 15.6 °C 1015.8 hPa SW 9.7 km/h 22.5 km/h 62 % 0.0 mm
15:47 23.3 °C 15.9 °C 1015.8 hPa SW 8.0 km/h 22.5 km/h 63 % 0.0 mm
15:52 23.7 °C 16.0 °C 1015.8 hPa SW 6.4 km/h 22.5 km/h 62 % 0.0 mm
15:57 24.0 °C 16.0 °C 1015.8 hPa WNW 17.7 km/h 22.5 km/h 61 % 0.0 mm
16:02 23.6 °C 15.4 °C 1015.8 hPa WNW 4.8 km/h 22.5 km/h 60 % 0.0 mm
16:12 23.9 °C 15.4 °C 1015.5 hPa SW 14.5 km/h 22.5 km/h 59 % 0.0 mm
16:17 23.9 °C 15.7 °C 1015.5 hPa SW 9.7 km/h 24.1 km/h 60 % 0.0 mm
16:22 23.8 °C 15.6 °C 1015.5 hPa West 3.2 km/h 24.1 km/h 60 % 0.0 mm
16:27 23.7 °C 15.5 °C 1015.5 hPa SW 11.3 km/h 22.5 km/h 60 % 0.0 mm
16:32 23.8 °C 15.8 °C 1015.5 hPa West 4.8 km/h 22.5 km/h 61 % 0.0 mm
16:37 23.8 °C 15.8 °C 1015.5 hPa NNW 3.2 km/h 22.5 km/h 61 % 0.0 mm
16:42 23.9 °C 15.9 °C 1015.5 hPa Calm   22.5 km/h 61 % 0.0 mm
16:47 24.2 °C 15.9 °C 1015.5 hPa West 9.7 km/h 17.7 km/h 60 % 0.0 mm
16:52 24.7 °C 15.9 °C 1015.1 hPa SSW 8.0 km/h 17.7 km/h 58 % 0.0 mm
16:57 24.7 °C 15.9 °C 1015.5 hPa WNW 8.0 km/h 14.5 km/h 58 % 0.0 mm
17:02 24.3 °C 15.8 °C 1015.1 hPa West 12.9 km/h 14.5 km/h 59 % 0.0 mm
17:12 24.1 °C 15.8 °C 1015.1 hPa WNW 4.8 km/h 17.7 km/h 60 % 0.0 mm
17:17 24.1 °C 15.8 °C 1015.1 hPa WSW 3.2 km/h 17.7 km/h 60 % 0.0 mm
17:22 24.3 °C 16.0 °C 1015.1 hPa WSW 12.9 km/h 17.7 km/h 60 % 0.0 mm
17:27 24.3 °C 15.8 °C 1015.1 hPa WNW 8.0 km/h 17.7 km/h 59 % 0.0 mm
17:32 24.6 °C 16.1 °C 1015.1 hPa West 4.8 km/h 17.7 km/h 59 % 0.0 mm
17:42 24.9 °C 15.8 °C 1014.8 hPa WSW 19.3 km/h 19.3 km/h 57 % 0.0 mm
17:52 24.6 °C 15.8 °C 1014.8 hPa West 1.6 km/h 19.3 km/h 58 % 0.0 mm
17:57 24.9 °C 15.8 °C 1014.8 hPa WSW 9.7 km/h 19.3 km/h 57 % 0.0 mm
18:02 24.8 °C 16.0 °C 1014.8 hPa WSW 6.4 km/h 19.3 km/h 58 % 0.0 mm
18:07 25.2 °C 16.1 °C 1014.8 hPa West 9.7 km/h 19.3 km/h 57 % 0.0 mm
18:12 25.2 °C 16.1 °C 1014.8 hPa West 4.8 km/h 19.3 km/h 57 % 0.0 mm
18:17 25.3 °C 16.2 °C 1014.8 hPa West 6.4 km/h 19.3 km/h 57 % 0.0 mm
18:22 25.1 °C 15.7 °C 1014.8 hPa WNW 8.0 km/h 14.5 km/h 56 % 0.0 mm
18:32 24.9 °C 15.8 °C 1014.4 hPa West 4.8 km/h 14.5 km/h 57 % 0.0 mm
18:37 25.2 °C 16.1 °C 1014.4 hPa NW 8.0 km/h 14.5 km/h 57 % 0.0 mm
18:42 25.3 °C 16.2 °C 1014.4 hPa WSW 11.3 km/h 16.1 km/h 57 % 0.0 mm
18:52 24.9 °C 15.8 °C 1014.4 hPa West 3.2 km/h 20.9 km/h 57 % 0.0 mm
18:57 25.1 °C 16.0 °C 1014.4 hPa NW 6.4 km/h 20.9 km/h 57 % 0.0 mm
19:02 25.1 °C 15.7 °C 1014.4 hPa West 14.5 km/h 20.9 km/h 56 % 0.0 mm
19:12 25.1 °C 15.7 °C 1014.4 hPa SSW 3.2 km/h 19.3 km/h 56 % 0.0 mm
19:17 25.1 °C 16.0 °C 1014.4 hPa West 4.8 km/h 19.3 km/h 57 % 0.0 mm
19:22 25.1 °C 16.0 °C 1014.4 hPa WNW 4.8 km/h 14.5 km/h 57 % 0.0 mm
19:32 25.0 °C 15.9 °C 1014.4 hPa WSW 9.7 km/h 16.1 km/h 57 % 0.0 mm
19:42 24.9 °C 16.1 °C 1014.4 hPa WSW 3.2 km/h 16.1 km/h 58 % 0.0 mm
19:47 24.9 °C 15.8 °C 1014.4 hPa West 3.2 km/h 14.5 km/h 57 % 0.0 mm
19:52 24.9 °C 15.8 °C 1014.4 hPa West 3.2 km/h 11.3 km/h 57 % 0.0 mm
19:57 24.9 °C 15.8 °C 1014.4 hPa WNW 4.8 km/h 12.9 km/h 57 % 0.0 mm
20:02 24.8 °C 15.7 °C 1014.4 hPa WNW 4.8 km/h 12.9 km/h 57 % 0.0 mm
20:12 24.7 °C 15.9 °C 1014.4 hPa West 6.4 km/h 12.9 km/h 58 % 0.0 mm
20:17 24.7 °C 15.9 °C 1014.4 hPa WSW 8.0 km/h 9.7 km/h 58 % 0.0 mm
20:22 24.6 °C 15.8 °C 1014.4 hPa WSW 6.4 km/h 9.7 km/h 58 % 0.0 mm
20:32 24.5 °C 16.0 °C 1014.4 hPa West 1.6 km/h 11.3 km/h 59 % 0.0 mm
20:37 24.4 °C 15.9 °C 1014.4 hPa WNW 4.8 km/h 8.0 km/h 59 % 0.0 mm
20:42 24.2 °C 15.7 °C 1014.4 hPa WNW 4.8 km/h 8.0 km/h 59 % 0.0 mm
20:47 24.2 °C 15.9 °C 1014.4 hPa WNW 6.4 km/h 12.9 km/h 60 % 0.0 mm
20:52 24.1 °C 15.8 °C 1014.4 hPa West 3.2 km/h 12.9 km/h 60 % 0.0 mm
20:57 23.9 °C 15.9 °C 1014.4 hPa WNW 3.2 km/h 9.7 km/h 61 % 0.0 mm
21:02 23.8 °C 15.8 °C 1014.4 hPa West 1.6 km/h 9.7 km/h 61 % 0.0 mm
21:07 23.7 °C 15.7 °C 1014.4 hPa Calm   9.7 km/h 61 % 0.0 mm
21:17 23.1 °C 15.7 °C 1014.4 hPa West 1.6 km/h 6.4 km/h 63 % 0.0 mm
21:27 22.4 °C 15.5 °C 1014.4 hPa Calm   4.8 km/h 65 % 0.0 mm
21:37 21.9 °C 15.7 °C 1014.4 hPa Calm   1.6 km/h 68 % 0.0 mm
21:42 21.6 °C 15.7 °C 1014.4 hPa Calm   1.6 km/h 69 % 0.0 mm
21:52 21.1 °C 15.4 °C 1014.4 hPa Calm   1.6 km/h 70 % 0.0 mm
22:02 20.6 °C 15.4 °C 1014.4 hPa Calm     72 % 0.0 mm
22:07 20.3 °C 15.3 °C 1014.4 hPa Calm   1.6 km/h 73 % 0.0 mm
22:12 20.2 °C 15.4 °C 1014.8 hPa Calm   1.6 km/h 74 % 0.0 mm
22:27 19.7 °C 15.3 °C 1014.8 hPa Calm     76 % 0.0 mm
22:32 19.7 °C 15.3 °C 1014.8 hPa Calm     76 % 0.0 mm
22:52 19.4 °C 15.3 °C 1014.8 hPa Calm   1.6 km/h 77 % 0.0 mm
22:57 19.2 °C 15.1 °C 1015.1 hPa Calm     77 % 0.0 mm
23:02 18.9 °C 14.8 °C 1015.1 hPa Calm     77 % 0.0 mm
23:12 18.6 °C 15.1 °C 1015.1 hPa Calm     80 % 0.0 mm
23:17 18.4 °C 14.7 °C 1015.1 hPa Calm     79 % 0.0 mm
23:22 18.2 °C 14.7 °C 1015.1 hPa Calm     80 % 0.0 mm
23:42 17.6 °C 14.5 °C 1015.1 hPa Calm     82 % 0.0 mm
23:47 17.5 °C 14.6 °C 1014.8 hPa Calm     83 % 0.0 mm
23:52 17.3 °C 14.4 °C 1015.1 hPa Calm     83 % 0.0 mm
23:57 17.2 °C 14.5 °C 1015.1 hPa Calm     84 % 0.0 mm
Meteo18
Compliments of Weather Underground - 4 mb

Script developed by  Jim McMurry - jmcmurry@mwt.net Adapted for the template by  Wim van der Kuil - Leuven-Template.eu

You find our weather info also at:

European Weather Network

Weather Underground

Equipment we use:

Weather-station
Davis Vue

Weather-program
Meteohub

Weather-server
Raspberry PI 2 B+

Provider
1 and 1

Davis Vue

Meteohub

Raspberry PI 2 B+

1 and 1